Time;durP1;ratioP1;P1;durP2;ratioP2;P2;SDS_P1;SDS_P2;PMS_P1;PMS_P2;Temp;Humidity;BMP_temperature;BMP_pressure;BME280_temperature;BME280_humidity;BME280_pressure;Samples;Min_cycle;Max_cycle;Signal;HPM_P1;HPM_P2
2023/10/16 00:01:38;;;;;;;1.48;0.60;;;;;;;;;;5025829;28;20103;-85
2023/10/16 00:04:04;;;;;;;1.27;0.73;;;;;;;;;;5031177;28;20045;-84
2023/10/16 00:06:31;;;;;;;0.93;0.50;;;;;;;;;;5021429;28;20155;-84
2023/10/16 00:09:10;;;;;;;3.42;1.20;;;;;;;;;;5028709;28;20029;-84
2023/10/16 00:11:37;;;;;;;1.90;0.60;;;;;;;;;;5030648;28;20600;-84
2023/10/16 00:14:14;;;;;;;0.60;0.43;;;;;;;;;;5031174;28;20053;-85
2023/10/16 00:16:44;;;;;;;1.40;0.50;;;;;;;;;;5029106;28;21703;-84
2023/10/16 00:19:11;;;;;;;1.40;0.68;;;;;;;;;;5026348;28;20044;-84
2023/10/16 00:21:43;;;;;;;2.92;0.90;;;;;;;;;;5033614;28;20025;-84
2023/10/16 00:24:10;;;;;;;1.75;1.08;;;;;;;;;;5037557;28;20058;-85
2023/10/16 00:26:36;;;;;;;1.30;0.70;;;;;;;;;;5042651;28;20471;-84
2023/10/16 00:29:07;;;;;;;2.30;1.27;;;;;;;;;;5041453;28;20053;-84
2023/10/16 00:31:35;;;;;;;3.88;1.33;;;;;;;;;;5035582;28;20065;-84
2023/10/16 00:34:04;;;;;;;3.15;1.30;;;;;;;;;;5038066;28;20040;-84
2023/10/16 00:36:30;;;;;;;1.40;0.68;;;;;;;;;;5034922;28;20037;-85
2023/10/16 00:38:58;;;;;;;3.90;1.20;;;;;;;;;;5037659;28;20021;-84
2023/10/16 00:41:25;;;;;;;1.05;0.80;;;;;;;;;;5036774;28;20017;-85
2023/10/16 00:43:51;;;;;;;2.38;1.13;;;;;;;;;;5032739;28;20025;-85
2023/10/16 00:46:23;;;;;;;2.20;0.68;;;;;;;;;;5035592;28;20029;-84
2023/10/16 00:48:49;;;;;;;2.25;0.70;;;;;;;;;;5036946;28;20041;-84
2023/10/16 00:51:16;;;;;;;0.88;0.57;;;;;;;;;;5034396;28;20038;-85
2023/10/16 00:53:42;;;;;;;0.63;0.60;;;;;;;;;;5042357;28;20036;-85
2023/10/16 00:56:13;;;;;;;1.65;0.82;;;;;;;;;;5044363;28;20062;-85
2023/10/16 00:58:40;;;;;;;1.25;0.70;;;;;;;;;;5041423;28;20036;-85
2023/10/16 01:01:09;;;;;;;0.68;0.60;;;;;;;;;;5034742;28;20056;-84
2023/10/16 01:03:36;;;;;;;1.45;0.82;;;;;;;;;;5029357;28;20032;-85
2023/10/16 01:06:03;;;;;;;5.03;1.15;;;;;;;;;;5028626;28;20194;-85
2023/10/16 01:08:29;;;;;;;0.95;0.38;;;;;;;;;;5035177;28;20029;-85
2023/10/16 01:10:58;;;;;;;1.70;0.70;;;;;;;;;;5041754;28;20036;-84
2023/10/16 01:13:28;;;;;;;1.73;0.80;;;;;;;;;;5038262;28;20712;-85
2023/10/16 01:15:56;;;;;;;1.52;0.95;;;;;;;;;;5038772;28;20041;-84
2023/10/16 01:18:23;;;;;;;2.90;0.55;;;;;;;;;;5037681;28;20108;-85
2023/10/16 01:20:49;;;;;;;1.95;0.60;;;;;;;;;;5046857;28;20032;-85
2023/10/16 01:23:16;;;;;;;2.03;1.00;;;;;;;;;;5032088;28;20056;-85
2023/10/16 01:25:43;;;;;;;3.10;1.05;;;;;;;;;;5036634;28;20671;-84
2023/10/16 01:28:11;;;;;;;1.55;0.80;;;;;;;;;;5039843;28;20025;-83
2023/10/16 01:30:41;;;;;;;1.60;0.65;;;;;;;;;;5041184;28;20029;-84
2023/10/16 01:33:08;;;;;;;1.30;0.80;;;;;;;;;;5046054;28;20040;-84
2023/10/16 01:35:36;;;;;;;1.98;0.70;;;;;;;;;;5037809;28;20037;-84
2023/10/16 01:38:14;;;;;;;1.75;0.88;;;;;;;;;;5041370;28;20023;-84
2023/10/16 01:40:40;;;;;;;1.55;0.52;;;;;;;;;;5036030;28;20040;-85
2023/10/16 01:43:06;;;;;;;6.90;1.17;;;;;;;;;;5041365;28;20032;-84
2023/10/16 01:45:32;;;;;;;0.93;0.70;;;;;;;;;;5040292;28;20033;-85
2023/10/16 01:48:04;;;;;;;1.30;0.77;;;;;;;;;;5036833;28;20021;-85
2023/10/16 01:50:30;;;;;;;1.50;0.98;;;;;;;;;;5041772;28;20029;-84
2023/10/16 01:52:56;;;;;;;1.88;0.85;;;;;;;;;;5062016;28;20036;-83
2023/10/16 01:55:22;;;;;;;1.48;0.77;;;;;;;;;;5047527;28;20033;-85
2023/10/16 01:57:50;;;;;;;2.92;0.80;;;;;;;;;;5034797;28;20027;-85
2023/10/16 02:00:17;;;;;;;3.00;1.15;;;;;;;;;;5038177;28;20032;-85
2023/10/16 02:02:43;;;;;;;8.70;1.20;;;;;;;;;;5039743;28;20487;-85
2023/10/16 02:05:11;;;;;;;1.90;1.00;;;;;;;;;;5040581;28;20032;-85
2023/10/16 02:07:41;;;;;;;1.25;0.80;;;1.40;99.90;;;;;;5034038;28;20091;-85
2023/10/16 02:10:11;;;;;;;1.25;0.90;;;;;;;;;;5028766;28;20064;-85
2023/10/16 02:12:38;;;;;;;1.33;0.70;;;;;;;;;;5033247;28;20683;-85
2023/10/16 02:15:06;;;;;;;1.80;0.88;;;;;;;;;;5032098;28;20053;-85
2023/10/16 02:17:32;;;;;;;2.92;0.95;;;;;;;;;;5036727;28;20549;-85
2023/10/16 02:19:58;;;;;;;2.28;1.10;;;;;;;;;;5036602;28;20028;-86
2023/10/16 02:22:24;;;;;;;0.82;0.65;;;;;;;;;;5042402;28;20034;-85
2023/10/16 02:24:50;;;;;;;2.38;0.63;;;;;;;;;;5034315;28;20028;-85
2023/10/16 02:27:18;;;;;;;1.25;0.77;;;;;;;;;;5036045;28;20029;-85
2023/10/16 02:29:49;;;;;;;0.98;0.80;;;;;;;;;;5035499;28;20025;-85
2023/10/16 02:32:16;;;;;;;11.32;1.25;;;;;;;;;;5041240;28;20044;-85
2023/10/16 02:34:42;;;;;;;3.55;1.23;;;;;;;;;;5039290;28;20124;-86
2023/10/16 02:37:14;;;;;;;1.67;1.15;;;;;;;;;;5039622;28;20515;-84
2023/10/16 02:39:41;;;;;;;2.08;0.95;;;;;;;;;;5037227;28;20033;-84
2023/10/16 02:42:14;;;;;;;0.95;0.57;;;;;;;;;;5037046;28;20025;-85
2023/10/16 02:44:42;;;;;;;0.77;0.60;;;;;;;;;;5036075;28;20029;-84
2023/10/16 02:47:08;;;;;;;2.78;1.17;;;;;;;;;;5029433;28;20618;-85
2023/10/16 02:49:35;;;;;;;2.40;1.08;;;;;;;;;;5030176;28;20083;-85
2023/10/16 02:52:01;;;;;;;1.80;0.88;;;;;;;;;;5034846;28;20493;-85
2023/10/16 02:54:26;;;;;;;0.95;0.73;;;;;;;;;;5038050;28;20033;-85
2023/10/16 02:56:59;;;;;;;2.03;0.75;;;;;;;;;;5038053;28;20025;-85
2023/10/16 02:59:25;;;;;;;1.83;1.00;;;;;;;;;;5041422;28;20032;-85
2023/10/16 03:01:53;;;;;;;2.10;0.90;;;;;;;;;;5038231;28;20265;-85
2023/10/16 03:04:23;;;;;;;1.83;1.00;;;;;;;;;;5030515;28;20744;-85
2023/10/16 03:06:53;;;;;;;2.85;1.27;;;;;;;;;;5037084;28;20032;-85
2023/10/16 03:09:31;;;;;;;2.53;1.00;;;;;;;;;;5038885;28;20060;-85
2023/10/16 03:12:08;;;;;;;1.92;1.05;;;;;;;;;;5032195;28;20033;-85
2023/10/16 03:15:20;;;;;;;2.40;1.10;;;;;;;;;;5039530;28;20096;-85
2023/10/16 03:19:55;;;;;;;1.92;1.23;;;;;;;;;;5036746;28;20037;-84
2023/10/16 03:22:22;;;;;;;2.22;1.15;;;;;;;;;;5042415;28;20167;-85
2023/10/16 03:24:48;;;;;;;10.60;1.10;;;;;;;;;;5035685;28;20017;-85
2023/10/16 03:27:28;;;;;;;3.22;1.30;;;;;;;;;;5035505;28;20083;-85
2023/10/16 03:29:55;;;;;;;1.77;1.10;;;;;;;;;;5037696;28;20033;-85
2023/10/16 03:32:21;;;;;;;1.80;0.95;;;;;;;;;;5039764;28;20444;-84
2023/10/16 03:34:47;;;;;;;3.28;1.25;;;;;;;;;;5039151;28;20113;-85
2023/10/16 03:37:15;;;;;;;2.25;1.20;;;;;;;;;;5043811;28;20475;-84
2023/10/16 03:39:41;;;;;;;1.55;1.08;;;;;;;;;;5033975;28;20036;-85
2023/10/16 03:42:11;;;;;;;4.13;1.23;;;;;;;;;;5037347;28;20022;-84
2023/10/16 03:44:39;;;;;;;2.22;1.10;;;;;;;;;;5034359;28;20033;-84
2023/10/16 03:47:08;;;;;;;1.05;0.77;;;;;;;;;;5030763;28;20043;-85
2023/10/16 03:49:35;;;;;;;1.33;1.10;;;;;;;;;;5029782;28;20517;-85
2023/10/16 03:52:02;;;;;;;7.90;1.00;;;;;;;;;;5037815;28;20044;-85
2023/10/16 03:54:31;;;;;;;1.95;0.93;;;;;;;;;;5040434;28;20036;-85
2023/10/16 03:56:59;;;;;;;4.30;0.98;;;;;;;;;;5034528;28;20037;-85
2023/10/16 03:59:28;;;;;;;2.50;1.45;;;;;;;;;;5036094;28;20116;-85
2023/10/16 04:01:54;;;;;;;1.42;0.88;;;;;;;;;;5034284;28;20478;-84
2023/10/16 04:04:24;;;;;;;2.08;1.10;;;;;;;;;;5034747;28;20086;-84
2023/10/16 04:06:52;;;;;;;4.47;1.60;;;;;;;;;;5029840;28;20033;-85
2023/10/16 04:09:19;;;;;;;2.83;1.40;;;;;;;;;;5026288;28;20029;-84
2023/10/16 04:11:54;;;;;;;2.03;1.15;;;;;;;;;;5033381;28;20131;-85
2023/10/16 04:14:28;;;;;;;1.20;0.63;;;;;;;;;;5029069;28;20040;-85
2023/10/16 04:16:55;;;;;;;3.22;1.40;;;;;;;;;;5035959;28;20029;-85
2023/10/16 04:22:08;;;;;;;1.60;0.75;;;;;;;;;;5051470;28;20124;-83
2023/10/16 04:24:44;;;;;;;2.95;1.05;;;;;;;;;;5035360;28;20511;-84
2023/10/16 04:32:37;;;;;;;5.07;1.00;;;;;;;;;;5035805;28;20078;-86
2023/10/16 04:35:27;;;;;;;5.00;1.25;;;;;;;;;;5039016;28;20038;-86
2023/10/16 04:37:54;;;;;;;2.13;1.50;;;;;;;;;;5044288;28;20394;-86
2023/10/16 04:43:37;;;;;;;6.05;1.35;;;;;;;;;;5036542;28;20036;-85
2023/10/16 04:46:17;;;;;;;1.48;1.13;;;;;;;;;;5032141;28;20029;-86
2023/10/16 04:48:50;;;;;;;2.63;1.60;;;;;;;;;;5039430;28;20124;-85
2023/10/16 04:51:17;;;;;;;6.13;2.92;;;;;;;;;;5038517;28;20057;-84
2023/10/16 04:53:58;;;;;;;3.97;2.05;;;;;;;;;;5025309;28;20067;-85
2023/10/16 04:59:36;;;;;;;2.35;1.30;;;;;;;;;;5036081;28;20630;-85
2023/10/16 05:02:16;;;;;;;4.20;2.05;;;;;;;;;;5045654;28;20024;-85
2023/10/16 05:07:46;;;;;;;5.40;1.52;;;;;;;;;;5027911;28;20150;-85
2023/10/16 05:10:17;;;;;;;3.45;2.17;;;;;;;;;;5037021;28;20116;-84
2023/10/16 05:18:51;;;;;;;2.15;1.35;;;;;;;;;;5040845;28;20041;-85
2023/10/16 06:16:21;;;;;;;3.47;1.58;;;;;;;;;;5040069;28;20138;-85
2023/10/16 06:18:47;;;;;;;3.97;1.92;;;;;;;;;;5026433;28;20021;-85
2023/10/16 06:21:17;;;;;;;3.42;1.70;;;;;;;;;;5027126;28;20022;-85
2023/10/16 06:23:49;;;;;;;4.88;2.70;;;;;;;;;;5032731;28;20053;-85
2023/10/16 06:26:21;;;;;;;3.95;1.77;;;;;;;;;;5035321;28;20500;-85
2023/10/16 06:28:47;;;;;;;4.75;2.10;;;;;;;;;;5041689;28;20028;-85
2023/10/16 06:31:25;;;;;;;3.67;2.17;;;;;;;;;;5047726;28;20029;-85
2023/10/16 06:33:58;;;;;;;4.60;2.50;;;;;;;;;;5035160;28;20051;-86
2023/10/16 06:36:24;;;;;;;5.30;2.30;;;;;;;;;;5043389;28;20033;-84
2023/10/16 06:38:53;;;;;;;5.15;2.75;;;;;;;;;;5035505;28;20703;-86
2023/10/16 06:41:22;;;;;;;5.03;2.80;;;;;;;;;;5038995;28;20021;-85
2023/10/16 06:43:49;;;;;;;5.10;3.13;;;;;;;;;;5041318;28;20048;-85
2023/10/16 06:46:23;;;;;;;4.13;2.05;;;1.70;99.90;;;;;;5044020;28;20030;-86
2023/10/16 06:48:50;;;;;;;4.55;2.38;;;;;;;;;;5062158;28;20013;-84
2023/10/16 06:51:16;;;;;;;4.18;1.77;;;;;;;;;;5055062;28;20036;-86
2023/10/16 06:53:44;;;;;;;3.00;1.90;;;;;;;;;;5033529;28;20059;-86
2023/10/16 06:56:14;;;;;;;2.83;1.65;;;;;;;;;;5028467;28;20046;-84
2023/10/16 06:58:40;;;;;;;2.90;1.75;;;;;;;;;;5042000;28;20196;-84
2023/10/16 07:01:06;;;;;;;5.03;2.25;;;;;;;;;;5041964;28;20036;-85
2023/10/16 07:03:36;;;;;;;4.07;1.83;;;;;;;;;;5043209;28;20022;-84
2023/10/16 07:06:05;;;;;;;2.67;1.30;;;;;;;;;;5042419;28;20029;-86
2023/10/16 07:08:33;;;;;;;4.13;2.25;;;;;;;;;;5043423;28;20398;-85
2023/10/16 07:11:03;;;;;;;3.03;1.92;;;;;;;;;;5043779;28;20052;-85
2023/10/16 07:13:38;;;;;;;3.75;1.90;;;;;;;;;;5037249;28;20675;-86
2023/10/16 07:16:07;;;;;;;2.45;1.58;;;2.90;99.90;;;;;;5028105;28;20044;-85
2023/10/16 07:18:35;;;;;;;3.88;1.77;;;;;;;;;;5041758;28;20498;-85
2023/10/16 07:23:34;;;;;;;3.47;1.92;;;;;;;;;;5040894;28;20075;-84
2023/10/16 07:26:00;;;;;;;3.08;1.63;;;;;;;;;;5040046;28;20029;-85
2023/10/16 07:28:27;;;;;;;2.47;1.73;;;2.80;99.90;;;;;;5043693;28;20086;-84
2023/10/16 07:30:56;;;;;;;4.38;1.50;;;;;;;;;;5042680;28;20037;-84
2023/10/16 07:33:23;;;;;;;2.85;1.52;;;;;;;;;;5038289;28;20452;-84
2023/10/16 07:35:49;;;;;;;3.22;1.77;;;;;;;;;;5044926;28;20064;-84
2023/10/16 07:38:20;;;;;;;4.30;2.15;;;3.00;99.90;;;;;;5036692;28;20025;-84
2023/10/16 07:40:53;;;;;;;6.70;2.47;;;3.30;99.90;;;;;;5036498;28;20037;-84
2023/10/16 07:43:29;;;;;;;3.38;2.03;;;;;;;;;;5040673;28;20028;-84
2023/10/16 07:48:40;;;;;;;3.47;1.98;;;;;;;;;;5037134;28;20121;-84
2023/10/16 07:51:09;;;;;;;2.58;1.23;;;;;;;;;;5037970;28;20271;-85
2023/10/16 07:53:35;;;;;;;3.97;1.88;;;;;;;;;;5040976;28;20037;-85
2023/10/16 07:56:19;;;;;;;2.70;1.70;;;;;;;;;;5042539;28;20025;-84
2023/10/16 07:58:48;;;;;;;;;;;4.30;99.90;;;;;;5044877;28;20053;-84
2023/10/16 08:03:45;;;;;;;4.40;2.28;;;;;;;;;;5042977;28;20281;-84
2023/10/16 08:06:17;;;;;;;4.05;1.73;;;;;;;;;;5041111;28;20125;-84
2023/10/16 08:08:48;;;;;;;3.95;1.90;;;;;;;;;;5042770;28;20549;-84
2023/10/16 08:11:21;;;;;;;3.45;1.58;;;;;;;;;;5042789;28;20029;-84
2023/10/16 08:13:48;;;;;;;2.92;1.92;;;;;;;;;;5033150;28;20029;-84
2023/10/16 08:16:21;;;;;;;3.58;1.77;;;4.80;99.90;;;;;;5041514;28;20036;-85
2023/10/16 08:18:50;;;;;;;4.32;1.92;;;;;;;;;;5048225;28;20076;-84
2023/10/16 08:21:26;;;;;;;4.65;2.05;;;;;;;;;;5041679;28;20445;-85
2023/10/16 08:23:53;;;;;;;5.47;3.42;;;;;;;;;;5036981;28;20056;-84
2023/10/16 08:26:28;;;;;;;4.72;2.72;;;;;;;;;;5043313;28;20070;-84
2023/10/16 08:31:44;;;;;;;5.72;2.30;;;;;;;;;;5039301;28;20044;-84
2023/10/16 08:34:12;;;;;;;4.22;2.08;;;6.30;99.90;;;;;;5040536;28;20040;-85
2023/10/16 08:36:38;;;;;;;4.25;2.67;;;;;;;;;;5038562;28;20033;-85
2023/10/16 08:39:16;;;;;;;2.90;1.83;;;;;;;;;;5041660;28;20031;-85
2023/10/16 08:44:40;;;;;;;2.30;1.80;;;;;;;;;;5067768;28;20056;-85
2023/10/16 08:49:33;;;;;;;2.47;1.30;;;7.40;99.90;;;;;;5046041;28;20076;-85
2023/10/16 08:52:06;;;;;;;2.33;1.33;;;;;;;;;;5045217;28;20029;-85
2023/10/16 08:54:45;;;;;;;3.65;1.90;;;;;;;;;;5043343;28;20091;-85
2023/10/16 08:57:12;;;;;;;4.65;1.80;;;;;;;;;;5043469;28;20051;-85
2023/10/16 08:59:42;;;;;;;3.45;1.95;;;7.40;99.90;;;;;;5038091;28;20029;-85
2023/10/16 09:02:11;;;;;;;3.80;1.67;;;;;;;;;;5044028;28;20045;-85
2023/10/16 09:04:38;;;;;;;4.30;2.35;;;;;;;;;;5040349;28;20024;-85
2023/10/16 09:07:04;;;;;;;11.00;2.60;;;;;;;;;;5045482;28;20048;-85
2023/10/16 09:09:31;;;;;;;3.88;2.10;;;;;;;;;;5043047;28;20043;-85
2023/10/16 09:12:03;;;;;;;2.65;1.63;;;;;;;;;;5044485;28;20051;-85
2023/10/16 09:14:29;;;;;;;5.72;2.15;;;;;;;;;;5044363;28;20073;-86
2023/10/16 09:16:58;;;;;;;4.57;2.30;;;8.20;99.90;;;;;;5043795;28;20410;-85
2023/10/16 09:19:34;;;;;;;6.25;2.08;;;;;;;;;;5041633;28;20037;-85
2023/10/16 09:22:08;;;;;;;4.95;1.92;;;;;;;;;;5048537;28;20405;-85
2023/10/16 09:24:35;;;;;;;4.53;2.50;;;;;;;;;;5054222;28;20054;-85
2023/10/16 09:27:17;;;;;;;4.93;2.53;;;8.30;99.90;;;;;;5068744;28;20017;-84
2023/10/16 09:29:56;;;;;;;6.65;3.10;;;9.00;99.90;;;;;;5048476;28;20053;-85
2023/10/16 09:32:26;;;;;;;5.68;2.72;;;8.80;99.90;;;;;;5031025;28;20118;-86
2023/10/16 09:34:58;;;;;;;6.05;2.47;;;9.10;99.90;;;;;;5045749;28;20104;-85
2023/10/16 09:37:29;;;;;;;7.63;2.90;;;;;;;;;;5033119;28;20021;-85
2023/10/16 09:40:00;;;;;;;5.53;3.35;;;;;;;;;;5037735;28;20026;-86
2023/10/16 09:42:28;;;;;;;8.52;2.83;;;;;;;;;;5040237;28;20021;-86
2023/10/16 09:44:59;;;;;;;5.32;2.55;;;;;;;;;;5038601;28;20025;-85
2023/10/16 09:47:26;;;;;;;4.28;2.45;;;;;;;;;;5044400;28;20025;-86
2023/10/16 09:49:59;;;;;;;4.03;2.03;;;9.40;99.90;;;;;;5043632;28;20435;-86
2023/10/16 09:52:27;;;;;;;;;;;9.40;99.90;;;;;;5042633;28;20529;-86
2023/10/16 09:54:53;;;;;;;7.72;2.05;;;;;;;;;;5041787;28;19912;-85
2023/10/16 09:57:22;;;;;;;5.00;2.55;;;10.20;99.90;;;;;;5045495;28;20385;-85
2023/10/16 10:00:00;;;;;;;4.43;1.75;;;9.40;99.90;;;;;;5045260;28;20050;-85
2023/10/16 10:02:26;;;;;;;5.47;1.60;;;;;;;;;;5043569;28;20035;-85
2023/10/16 10:05:08;;;;;;;4.15;1.73;;;;;;;;;;5045859;28;20112;-85
2023/10/16 10:07:47;;;;;;;2.40;1.08;;;10.40;99.90;;;;;;5040950;28;20382;-86
2023/10/16 10:13:09;;;;;;;3.13;1.38;;;10.50;99.90;;;;;;5044020;28;20067;-86
2023/10/16 10:15:39;;;;;;;9.88;1.98;;;9.60;99.90;;;;;;5038586;28;20099;-86
2023/10/16 10:20:58;;;;;;;3.60;1.40;;;10.20;99.90;;;;;;5046533;28;20136;-85
2023/10/16 10:23:25;;;;;;;2.13;0.82;;;;;;;;;;5040474;28;20016;-86
2023/10/16 10:25:53;;;;;;;1.88;0.90;;;10.70;99.90;;;;;;5045062;28;20040;-86
2023/10/16 10:28:31;;;;;;;3.15;1.60;;;10.90;99.90;;;;;;5035807;28;20040;-85
2023/10/16 10:31:02;;;;;;;3.70;1.67;;;;;;;;;;5041873;28;20128;-85
2023/10/16 10:33:36;;;;;;;6.65;1.13;;;10.30;99.90;;;;;;5045898;28;20033;-86
2023/10/16 10:36:27;;;;;;;1.23;0.77;;;11.20;99.90;;;;;;5042322;28;20039;-87
2023/10/16 10:42:10;;;;;;;2.45;0.98;;;;;;;;;;5041344;28;20390;-85
2023/10/16 10:44:52;;;;;;;0.65;0.50;;;10.40;99.90;;;;;;5034053;28;20402;-86
2023/10/16 10:47:30;;;;;;;0.50;0.40;;;11.30;99.90;;;;;;5028015;28;20033;-86
2023/10/16 10:50:00;;;;;;;5.65;1.00;;;;;;;;;;5045740;28;20025;-86
2023/10/16 10:52:32;;;;;;;1.02;0.65;;;11.10;99.90;;;;;;5035084;28;20037;-86
2023/10/16 10:54:59;;;;;;;9.10;2.13;;;11.20;99.90;;;;;;5041347;28;20493;-86
2023/10/16 10:57:26;;;;;;;3.17;0.93;;;;;;;;;;5049926;28;20032;-86
2023/10/16 10:59:56;;;;;;;7.38;1.98;;;;;;;;;;5037124;28;20049;-86
2023/10/16 11:02:48;;;;;;;2.15;0.80;;;;;;;;;;5038977;28;20018;-86
2023/10/16 11:05:08;;;;;;;10.00;1.52;;;;;;;;;;5032638;28;20022;-86
2023/10/16 11:07:45;;;;;;;3.70;1.10;;;11.10;99.90;;;;;;5040769;28;20037;-85
2023/10/16 11:10:13;;;;;;;3.10;0.88;;;11.30;99.90;;;;;;5042956;28;20446;-86
2023/10/16 11:12:39;;;;;;;15.35;3.35;;;;;;;;;;5037999;28;20130;-86
2023/10/16 11:15:12;;;;;;;4.45;2.35;;;;;;;;;;5041622;28;20063;-86
2023/10/16 11:17:37;;;;;;;8.27;2.67;;;;;;;;;;5046630;28;20021;-87
2023/10/16 11:22:46;;;;;;;2.20;0.70;;;11.40;99.90;;;;;;5016992;28;20133;-85
2023/10/16 11:25:15;;;;;;;1.88;0.82;;;;;;;;;;5021579;28;20455;-86
2023/10/16 11:27:44;;;;;;;11.73;1.65;;;;;;;;;;5025221;28;20482;-86
2023/10/16 11:30:11;;;;;;;4.15;0.80;;;;;;;;;;5028931;28;20041;-86
2023/10/16 11:32:47;;;;;;;1.10;0.75;;;;;;;;;;5028903;28;20051;-87
2023/10/16 11:35:15;;;;;;;4.30;0.73;;;11.70;99.90;;;;;;5028023;28;20490;-86
2023/10/16 11:37:43;;;;;;;1.88;0.70;;;;;;;;;;5034871;28;20540;-86
2023/10/16 11:40:18;;;;;;;5.88;1.48;;;11.50;99.90;;;;;;5033745;28;20045;-86
2023/10/16 11:42:48;;;;;;;2.90;1.08;;;11.50;99.90;;;;;;5041266;28;20532;-86
2023/10/16 11:45:20;;;;;;;6.35;1.35;;;11.50;99.90;;;;;;5027948;28;24361;-86
2023/10/16 11:48:03;;;;;;;1.33;0.73;;;;;;;;;;5029411;28;21489;-86
2023/10/16 11:50:38;;;;;;;0.77;0.57;;;;;;;;;;5041115;28;20043;-85
2023/10/16 11:53:07;;;;;;;4.50;1.42;;;;;;;;;;5045277;28;20029;-85
2023/10/16 11:55:36;;;;;;;3.45;0.30;;;;;;;;;;5042139;28;20033;-85
2023/10/16 11:58:02;;;;;;;5.40;1.20;;;;;;;;;;5027747;28;20036;-85
2023/10/16 12:00:30;;;;;;;4.30;1.52;;;;;;;;;;5036312;28;20523;-86
2023/10/16 12:02:56;;;;;;;4.55;1.58;;;;;;;;;;5040960;28;20029;-86
2023/10/16 12:05:28;;;;;;;3.30;1.08;;;;;;;;;;5041362;28;20017;-86
2023/10/16 12:07:56;;;;;;;5.47;1.08;;;;;;;;;;5029054;28;20091;-85
2023/10/16 12:10:23;;;;;;;2.17;0.70;;;;;;;;;;5038522;28;20385;-86
2023/10/16 12:12:49;;;;;;;11.75;2.05;;;;;;;;;;5023885;28;20072;-86
2023/10/16 12:15:15;;;;;;;3.35;0.90;;;;;;;;;;5035577;28;20037;-86
2023/10/16 12:17:43;;;;;;;1.80;0.80;;;;;;;;;;5028322;28;20068;-85
2023/10/16 12:20:10;;;;;;;4.18;1.05;;;;;;;;;;5054694;28;20009;-85
2023/10/16 12:22:39;;;;;;;3.13;1.02;;;;;;;;;;5048210;28;20041;-85
2023/10/16 12:25:09;;;;;;;0.95;0.47;;;;;;;;;;5039954;28;20037;-84
2023/10/16 12:27:36;;;;;;;1.10;0.40;;;;;;;;;;5034270;28;20030;-85
2023/10/16 12:30:03;;;;;;;1.58;0.43;;;;;;;;;;5040545;28;20025;-86
2023/10/16 12:32:30;;;;;;;1.38;0.40;;;;;;;;;;5039653;28;21668;-85
2023/10/16 12:35:00;;;;;;;6.50;1.27;;;;;;;;;;5021048;28;20036;-86
2023/10/16 12:37:27;;;;;;;3.80;1.23;;;;;;;;;;5039201;28;20452;-87
2023/10/16 12:39:55;;;;;;;2.58;0.88;;;;;;;;;;5033445;28;20393;-84
2023/10/16 12:42:21;;;;;;;2.40;1.00;;;;;;;;;;5034271;28;20541;-85
2023/10/16 12:44:47;;;;;;;1.35;0.65;;;;;;;;;;5024617;28;20053;-85
2023/10/16 12:47:13;;;;;;;3.08;1.08;;;;;;;;;;5034191;28;20055;-85
2023/10/16 12:49:40;;;;;;;2.47;0.88;;;;;;;;;;5026801;28;20044;-85
2023/10/16 12:52:07;;;;;;;4.47;0.93;;;;;;;;;;5037281;28;20035;-85
2023/10/16 12:54:33;;;;;;;2.28;0.85;;;;;;;;;;5038691;28;20075;-85
2023/10/16 12:56:59;;;;;;;2.05;0.95;;;;;;;;;;5033046;28;20119;-86
2023/10/16 12:59:26;;;;;;;1.63;0.52;;;;;;;;;;5039109;28;20474;-86
2023/10/16 13:01:52;;;;;;;2.15;0.60;;;;;;;;;;5027547;28;20095;-86
2023/10/16 13:04:19;;;;;;;1.60;0.88;;;;;;;;;;5044517;28;20021;-86
2023/10/16 13:06:45;;;;;;;1.27;0.45;;;;;;;;;;5042750;28;20116;-84
2023/10/16 13:09:16;;;;;;;2.20;0.98;;;;;;;;;;5038080;28;20033;-85
2023/10/16 13:11:42;;;;;;;4.63;0.50;;;;;;;;;;5030169;28;20025;-86
2023/10/16 13:14:08;;;;;;;3.17;0.80;;;;;;;;;;5019429;28;20112;-86
2023/10/16 13:16:34;;;;;;;1.63;0.88;;;;;;;;;;5033415;28;21882;-87
2023/10/16 13:19:00;;;;;;;2.85;0.80;;;;;;;;;;5025467;28;20033;-86
2023/10/16 13:21:41;;;;;;;2.47;0.82;;;;;;;;;;5023399;28;20052;-86
2023/10/16 13:24:16;;;;;;;4.57;1.02;;;11.60;99.90;;;;;;5035724;28;20137;-86
2023/10/16 13:26:42;;;;;;;11.95;2.60;;;;;;;;;;5047243;28;20018;-87
2023/10/16 13:29:13;;;;;;;2.38;1.05;;;;;;;;;;5031116;28;20052;-86
2023/10/16 13:31:46;;;;;;;5.05;1.45;;;11.80;99.90;;;;;;5045204;28;20088;-85
2023/10/16 13:34:13;;;;;;;0.90;0.30;;;11.70;99.90;;;;;;5044571;28;20034;-87
2023/10/16 13:36:56;;;;;;;0.73;0.45;;;11.60;99.90;;;;;;5040827;28;20021;-86
2023/10/16 13:39:25;;;;;;;1.90;0.60;;;;;;;;;;5043151;28;20021;-86
2023/10/16 13:41:51;;;;;;;4.38;1.05;;;;;;;;;;5044559;28;20038;-86
2023/10/16 13:44:24;;;;;;;3.70;1.48;;;12.00;99.90;;;;;;5038740;28;20025;-86
2023/10/16 13:46:50;;;;;;;1.88;0.68;;;;;;;;;;5040717;28;20033;-87
2023/10/16 13:49:18;;;;;;;3.22;0.70;;;;;;;;;;5044661;28;20028;-86
2023/10/16 13:51:44;;;;;;;5.57;2.03;;;;;;;;;;5042853;28;20031;-86
2023/10/16 13:54:14;;;;;;;3.78;0.70;;;;;;;;;;5041983;28;20065;-86
2023/10/16 13:56:45;;;;;;;4.90;1.77;;;11.50;99.90;;;;;;5043343;28;20040;-85
2023/10/16 13:59:12;;;;;;;3.10;1.27;;;;;;;;;;5021012;28;20029;-85
2023/10/16 14:01:39;;;;;;;1.48;1.17;;;;;;;;;;5040705;28;20122;-86
2023/10/16 14:04:11;;;;;;;1.85;0.60;;;11.40;99.90;;;;;;5039151;28;20437;-86
2023/10/16 14:06:40;;;;;;;1.30;0.68;;;;;;;;;;5039890;28;20387;-86
2023/10/16 14:09:11;;;;;;;4.78;1.70;;;;;;;;;;5036034;28;20639;-86
2023/10/16 14:11:47;;;;;;;1.58;0.70;;;;;;;;;;5038942;28;20125;-86
2023/10/16 14:14:18;;;;;;;6.10;1.30;;;;;;;;;;5036252;28;20033;-87
2023/10/16 14:16:46;;;;;;;3.90;1.33;;;;;;;;;;5033138;28;20040;-86
2023/10/16 14:19:13;;;;;;;2.30;0.88;;;;;;;;;;5025289;28;20045;-86
2023/10/16 14:21:40;;;;;;;5.80;2.10;;;;;;;;;;5026103;28;20029;-85
2023/10/16 14:24:07;;;;;;;11.10;2.33;;;11.80;99.90;;;;;;5033146;28;20032;-85
2023/10/16 14:26:34;;;;;;;6.38;2.25;;;;;;;;;;5028564;28;20447;-86
2023/10/16 14:29:00;;;;;;;13.77;2.55;;;;;;;;;;5046064;28;20118;-85
2023/10/16 14:31:28;;;;;;;4.03;1.58;;;;;;;;;;5034367;28;20060;-87
2023/10/16 14:33:54;;;;;;;11.32;2.10;;;12.00;99.90;;;;;;5040365;28;20094;-87
2023/10/16 14:36:24;;;;;;;8.02;2.35;;;;;;;;;;5037662;28;20468;-86
2023/10/16 14:38:51;;;;;;;7.82;1.50;;;;;;;;;;5046420;28;20500;-85
2023/10/16 14:41:17;;;;;;;8.75;3.15;;;;;;;;;;5042534;28;20028;-86
2023/10/16 14:43:45;;;;;;;6.32;1.85;;;;;;;;;;5042261;28;20094;-85
2023/10/16 14:46:12;;;;;;;5.25;2.00;;;;;;;;;;5038482;28;20043;-87
2023/10/16 14:48:38;;;;;;;7.45;1.17;;;;;;;;;;5043755;28;20040;-88
2023/10/16 14:51:04;;;;;;;1.65;1.00;;;;;;;;;;5042876;28;20391;-86
2023/10/16 14:53:31;;;;;;;1.45;0.68;;;;;;;;;;5048137;28;20121;-88
2023/10/16 14:55:57;;;;;;;7.32;2.58;;;;;;;;;;5039227;28;20060;-86
2023/10/16 14:58:24;;;;;;;16.15;3.97;;;;;;;;;;5037934;28;20029;-86
2023/10/16 15:00:50;;;;;;;16.88;4.55;;;;;;;;;;5037070;28;20025;-87
2023/10/16 15:03:20;;;;;;;4.80;2.30;;;;;;;;;;5037339;28;20028;-87
2023/10/16 15:05:49;;;;;;;6.38;1.92;;;;;;;;;;5042211;28;20032;-86
2023/10/16 15:08:15;;;;;;;3.33;1.48;;;;;;;;;;5038225;28;20324;-86
2023/10/16 15:10:45;;;;;;;4.68;1.15;;;;;;;;;;5038105;28;20037;-86
2023/10/16 15:13:12;;;;;;;3.50;1.15;;;;;;;;;;5037253;28;20024;-87
2023/10/16 15:15:42;;;;;;;3.92;1.63;;;;;;;;;;5036241;28;20029;-86
2023/10/16 15:18:12;;;;;;;8.95;1.92;;;;;;;;;;5041347;28;20029;-87
2023/10/16 15:20:39;;;;;;;14.82;3.03;;;;;;;;;;5045716;28;20092;-91
2023/10/16 15:23:05;;;;;;;2.88;1.52;;;;;;;;;;5061532;28;20017;-87
2023/10/16 15:25:35;;;;;;;6.55;1.67;;;;;;;;;;5023742;28;20022;-87
2023/10/16 15:28:01;;;;;;;16.02;3.55;;;;;;;;;;5025297;28;20026;-86
2023/10/16 15:30:27;;;;;;;17.65;4.28;;;;;;;;;;5019653;28;20401;-87
2023/10/16 15:32:54;;;;;;;2.58;1.27;;;;;;;;;;5022161;28;20037;-87
2023/10/16 15:35:20;;;;;;;1.60;0.65;;;;;;;;;;5034848;28;20123;-85
2023/10/16 15:37:46;;;;;;;13.98;3.47;;;;;;;;;;5031869;28;20021;-87
2023/10/16 15:40:17;;;;;;;9.80;3.45;;;;;;;;;;5034144;28;20028;-88
2023/10/16 15:42:44;;;;;;;14.45;4.60;;;;;;;;;;5021670;28;20032;-87
2023/10/16 15:45:10;;;;;;;28.48;7.65;;;;;;;;;;5035242;28;20037;-88
2023/10/16 15:47:36;;;;;;;16.73;4.30;;;;;;;;;;5038118;28;20024;-86
2023/10/16 15:50:05;;;;;;;7.18;2.45;;;;;;;;;;5033405;28;20405;-87
2023/10/16 15:52:31;;;;;;;11.75;2.80;;;;;;;;;;5031528;28;20029;-87
2023/10/16 15:54:57;;;;;;;7.13;2.72;;;;;;;;;;5025839;28;20435;-86
2023/10/16 15:57:24;;;;;;;11.98;3.00;;;;;;;;;;5019021;28;20025;-88
2023/10/16 15:59:51;;;;;;;12.60;2.95;;;;;;;;;;5025694;28;20066;-87
2023/10/16 16:02:18;;;;;;;12.18;3.55;;;;;;;;;;5026089;28;20021;-86
2023/10/16 16:04:46;;;;;;;12.05;4.40;;;;;;;;;;5038662;28;20033;-87
2023/10/16 16:07:12;;;;;;;28.33;9.02;;;;;;;;;;5037436;28;20127;-87
2023/10/16 16:09:39;;;;;;;24.15;6.45;;;;;;;;;;5024721;28;20033;-87
2023/10/16 16:12:08;;;;;;;17.48;4.30;;;;;;;;;;5021516;28;20146;-87
2023/10/16 16:14:37;;;;;;;16.67;4.10;;;;;;;;;;5031710;28;20025;-86
2023/10/16 16:17:03;;;;;;;16.42;3.83;;;;;;;;;;5027260;28;20152;-87
2023/10/16 16:19:29;;;;;;;5.80;2.03;;;;;;;;;;5010175;28;20029;-86
2023/10/16 16:21:55;;;;;;;5.53;1.60;;;;;;;;;;5009552;28;20754;-86
2023/10/16 16:24:21;;;;;;;8.63;3.65;;;;;;;;;;5026485;28;20030;-88
2023/10/16 16:26:49;;;;;;;13.23;5.20;;;;;;;;;;5024080;28;20037;-88